Time;durP1;ratioP1;P1;durP2;ratioP2;P2;SDS_P1;SDS_P2;PMS_P1;PMS_P2;Temp;Humidity;BMP_temperature;BMP_pressure;BME280_temperature;BME280_humidity;BME280_pressure;Samples;Min_cycle;Max_cycle;Signal;HPM_P1;HPM_P2
2022/06/09 00:00:21;;;;;;;2.78;0.47;;;11.90;99.90;;;;;;5074140;28;20024;-73
2022/06/09 00:02:52;;;;;;;1.27;0.40;;;11.90;99.90;;;;;;5073846;28;20379;-72
2022/06/09 00:05:20;;;;;;;9.85;1.02;;;11.90;99.90;;;;;;5073476;28;20370;-72
2022/06/09 00:07:49;;;;;;;13.70;2.30;;;12.00;99.90;;;;;;5073410;28;20384;-71
2022/06/09 00:10:22;;;;;;;1.85;0.30;;;12.00;99.90;;;;;;5073426;28;20469;-71
2022/06/09 00:12:49;;;;;;;45.55;7.90;;;12.10;99.90;;;;;;5073928;28;20024;-72
2022/06/09 00:15:17;;;;;;;0.93;0.45;;;12.10;99.90;;;;;;5071826;28;20392;-72
2022/06/09 00:17:44;;;;;;;1.45;0.30;;;12.10;99.90;;;;;;5073191;28;20439;-71
2022/06/09 00:20:13;;;;;;;3.13;0.65;;;12.10;99.90;;;;;;5071826;28;20046;-71
2022/06/09 00:22:41;;;;;;;2.38;0.90;;;12.10;99.90;;;;;;5073224;28;20104;-71
2022/06/09 00:25:09;;;;;;;2.72;0.60;;;12.20;99.90;;;;;;5073135;28;20495;-72
2022/06/09 00:27:36;;;;;;;5.43;1.05;;;12.10;99.90;;;;;;5072039;28;20032;-71
2022/06/09 00:30:08;;;;;;;28.77;5.25;;;12.30;99.90;;;;;;5073033;28;20070;-71
2022/06/09 00:32:36;;;;;;;2.72;0.40;;;12.40;99.90;;;;;;5071794;28;20052;-71
2022/06/09 00:35:03;;;;;;;2.08;0.85;;;12.40;99.90;;;;;;5072877;28;20070;-71
2022/06/09 00:37:33;;;;;;;1.67;0.50;;;12.50;99.90;;;;;;5073154;28;20052;-71
2022/06/09 00:40:01;;;;;;;1.13;0.30;;;12.50;99.90;;;;;;5071474;28;20025;-71
2022/06/09 00:42:29;;;;;;;1.23;0.22;;;12.70;99.90;;;;;;5072846;28;20020;-71
2022/06/09 00:44:56;;;;;;;2.88;0.43;;;12.70;99.90;;;;;;5071458;28;20028;-71
2022/06/09 00:47:32;;;;;;;2.17;0.80;;;12.80;99.90;;;;;;5073019;28;20104;-71
2022/06/09 00:50:12;;;;;;;1.33;0.50;;;12.80;99.90;;;;;;5072907;28;20361;-71
2022/06/09 00:52:43;;;;;;;2.55;0.55;;;12.90;99.90;;;;;;5072947;28;20024;-71
2022/06/09 00:55:18;;;;;;;2.97;0.60;;;12.90;99.90;;;;;;5072941;28;20032;-71
2022/06/09 00:57:53;;;;;;;18.50;3.30;;;13.00;99.90;;;;;;5072937;28;20099;-71
2022/06/09 01:00:26;;;;;;;2.65;0.55;;;13.00;99.90;;;;;;5072684;28;20021;-71
2022/06/09 01:02:56;;;;;;;1.42;0.52;;;13.10;99.90;;;;;;5072757;28;20024;-70
2022/06/09 01:05:26;;;;;;;0.93;0.50;;;13.10;99.90;;;;;;5072694;28;20044;-71
2022/06/09 01:07:55;;;;;;;2.22;0.35;;;13.10;99.90;;;;;;5071340;28;20028;-71
2022/06/09 01:10:23;;;;;;;1.20;0.47;;;13.20;99.90;;;;;;5072474;28;20029;-71
2022/06/09 01:12:50;;;;;;;1.02;0.68;;;13.30;99.90;;;;;;5071320;28;20021;-72
2022/06/09 01:15:20;;;;;;;5.72;1.02;;;13.30;99.90;;;;;;5072375;28;20032;-71
2022/06/09 01:18:01;;;;;;;4.00;0.77;;;13.30;99.90;;;;;;5072627;28;20017;-71
2022/06/09 01:20:57;;;;;;;2.80;0.55;;;13.40;99.90;;;;;;5077052;28;20385;-71
2022/06/09 01:23:52;;;;;;;1.75;0.40;;;13.50;99.90;;;;;;5077248;28;20484;-71
2022/06/09 01:26:28;;;;;;;1.10;0.50;;;13.60;99.90;;;;;;5076588;28;20016;-72
2022/06/09 01:29:20;;;;;;;1.48;0.38;;;13.60;99.90;;;;;;5076482;28;20021;-72
2022/06/09 01:32:10;;;;;;;2.63;0.50;;;13.50;99.90;;;;;;5074793;28;20063;-73
2022/06/09 01:34:47;;;;;;;5.30;0.60;;;13.60;99.90;;;;;;5075013;28;20408;-71
2022/06/09 01:37:18;;;;;;;1.55;0.45;;;13.60;99.90;;;;;;5076275;28;20040;-71
2022/06/09 01:39:50;;;;;;;1.48;0.40;;;13.70;99.90;;;;;;5076510;28;20023;-71
2022/06/09 01:42:41;;;;;;;1.85;0.50;;;13.80;99.90;;;;;;5074743;28;20024;-71
2022/06/09 01:45:17;;;;;;;1.27;0.40;;;14.00;99.90;;;;;;5075826;28;20405;-71
2022/06/09 01:48:08;;;;;;;2.53;0.65;;;14.00;99.90;;;;;;5076072;28;20020;-71
2022/06/09 01:50:44;;;;;;;2.47;0.60;;;14.10;99.90;;;;;;5075595;28;20051;-71
2022/06/09 01:53:33;;;;;;;4.65;1.20;;;14.10;99.90;;;;;;5076390;28;20385;-71
2022/06/09 01:56:19;;;;;;;2.13;0.50;;;14.10;99.90;;;;;;5075914;28;20488;-71
2022/06/09 01:58:57;;;;;;;3.40;0.70;;;14.10;99.90;;;;;;5074577;28;20021;-70
2022/06/09 02:01:34;;;;;;;5.90;1.30;;;14.10;99.90;;;;;;5074432;28;20024;-70
2022/06/09 02:04:06;;;;;;;1.23;0.65;;;14.40;99.90;;;;;;5075918;28;20029;-70
2022/06/09 02:06:36;;;;;;;6.65;0.60;;;14.50;99.90;;;;;;5074483;28;20134;-70
2022/06/09 02:09:05;;;;;;;5.25;0.95;;;14.50;99.90;;;;;;5075763;28;20082;-70
2022/06/09 02:11:32;;;;;;;0.60;0.20;;;14.40;99.90;;;;;;5074140;28;20035;-71
2022/06/09 02:14:01;;;;;;;18.90;2.90;;;14.40;99.90;;;;;;5073989;28;20025;-71
2022/06/09 02:16:28;;;;;;;1.83;0.82;;;14.50;99.90;;;;;;5075402;28;20551;-71
2022/06/09 02:18:57;;;;;;;1.58;0.43;;;14.70;99.90;;;;;;5074106;28;20115;-72
2022/06/09 02:21:28;;;;;;;55.15;8.73;;;15.00;99.90;;;;;;5075298;28;20021;-71
2022/06/09 02:23:55;;;;;;;2.72;0.50;;;15.00;99.90;;;;;;5074055;28;20029;-72
2022/06/09 02:26:23;;;;;;;6.35;1.50;;;14.90;99.90;;;;;;5074006;28;20036;-72
2022/06/09 02:28:51;;;;;;;3.45;0.50;;;15.00;99.90;;;;;;5075219;28;20016;-72
2022/06/09 02:31:20;;;;;;;0.60;0.30;;;15.10;99.90;;;;;;5074071;28;20384;-72
2022/06/09 02:33:49;;;;;;;0.60;0.30;;;15.20;99.90;;;;;;5075208;28;20131;-71
2022/06/09 02:36:16;;;;;;;2.47;0.30;;;15.10;99.90;;;;;;5075155;28;20066;-71
2022/06/09 02:38:44;;;;;;;1.50;0.30;;;15.20;99.90;;;;;;5073658;28;20480;-72
2022/06/09 02:41:12;;;;;;;1.17;0.47;;;15.40;99.90;;;;;;5075602;28;20012;-72
2022/06/09 02:43:40;;;;;;;3.47;0.40;;;15.60;99.90;;;;;;5074946;28;20353;-72
2022/06/09 02:46:08;;;;;;;4.53;0.63;;;15.70;99.90;;;;;;5075061;28;20104;-71
2022/06/09 02:48:36;;;;;;;0.98;0.38;;;15.60;99.90;;;;;;5074940;28;20040;-71
2022/06/09 02:51:41;;;;;;;3.22;0.70;;;15.60;99.90;;;;;;5075234;28;20611;-71
2022/06/09 02:54:12;;;;;;;1.17;0.50;;;15.60;99.90;;;;;;5032782;28;20029;-71
2022/06/09 02:56:41;;;;;;;4.38;0.80;;;15.60;99.80;;;;;;5064807;28;20128;-71
2022/06/09 02:59:09;;;;;;;0.73;0.30;;;15.50;99.90;;;;;;5074757;28;20013;-73
2022/06/09 03:01:37;;;;;;;0.32;0.10;;;15.50;99.90;;;;;;5075087;28;20021;-71
2022/06/09 03:04:05;;;;;;;1.88;0.50;;;15.50;99.90;;;;;;5074774;28;20527;-71
2022/06/09 03:06:34;;;;;;;0.50;0.20;;;15.50;99.90;;;;;;5073576;28;20035;-72
2022/06/09 03:09:02;;;;;;;1.65;0.30;;;15.60;99.90;;;;;;5074869;28;20532;-72
2022/06/09 03:11:29;;;;;;;0.40;0.20;;;15.60;99.90;;;;;;5074657;28;20074;-72
2022/06/09 03:13:57;;;;;;;1.15;0.20;;;15.50;99.60;;;;;;5074356;28;20070;-72
2022/06/09 03:16:24;;;;;;;0.82;0.30;;;15.40;99.70;;;;;;5074698;28;20032;-71
2022/06/09 03:18:51;;;;;;;1.55;0.30;;;15.50;99.80;;;;;;5074410;28;20012;-73
2022/06/09 03:21:19;;;;;;;0.35;0.20;;;15.60;99.70;;;;;;5074450;28;20052;-72
2022/06/09 03:23:46;;;;;;;2.65;0.20;;;15.60;99.90;;;;;;5074327;28;20476;-72
2022/06/09 03:26:14;;;;;;;0.70;0.25;;;15.60;99.90;;;;;;5074423;28;20082;-73
2022/06/09 03:28:41;;;;;;;2.15;0.57;;;15.60;99.70;;;;;;5074364;28;20153;-72
2022/06/09 03:31:08;;;;;;;0.88;0.20;;;15.60;99.90;;;;;;5072926;28;20434;-72
2022/06/09 03:33:37;;;;;;;0.70;0.20;;;15.70;99.80;;;;;;5073863;28;20564;-72
2022/06/09 03:36:05;;;;;;;1.85;0.20;;;15.60;99.90;;;;;;5073964;28;20540;-72
2022/06/09 03:38:32;;;;;;;1.38;0.20;;;15.60;99.90;;;;;;5073965;28;20048;-72
2022/06/09 03:41:00;;;;;;;0.43;0.13;;;15.70;99.90;;;;;;5072237;28;20107;-72
2022/06/09 03:43:27;;;;;;;4.78;0.30;;;15.70;99.90;;;;;;5073960;28;20480;-72
2022/06/09 03:45:55;;;;;;;1.30;0.22;;;15.70;99.90;;;;;;5073755;28;20028;-72
2022/06/09 03:48:22;;;;;;;1.83;0.38;;;15.80;99.80;;;;;;5073855;28;20024;-72
2022/06/09 03:50:50;;;;;;;0.38;0.20;;;15.80;99.90;;;;;;5073633;28;20021;-72
2022/06/09 03:53:17;;;;;;;0.43;0.10;;;15.80;99.50;;;;;;5072417;28;20500;-73
2022/06/09 03:55:45;;;;;;;4.38;0.70;;;15.70;99.40;;;;;;5073501;28;20063;-72
2022/06/09 03:58:12;;;;;;;0.55;0.30;;;15.70;99.70;;;;;;5073643;28;20477;-72
2022/06/09 04:00:40;;;;;;;0.95;0.20;;;15.60;99.40;;;;;;5073417;28;20020;-72
2022/06/09 04:03:07;;;;;;;1.50;0.32;;;15.60;99.70;;;;;;5073573;28;20025;-71
2022/06/09 04:05:37;;;;;;;0.82;0.22;;;15.70;99.70;;;;;;5072031;28;20070;-71
2022/06/09 04:08:05;;;;;;;1.17;0.20;;;15.70;99.90;;;;;;5072101;28;20028;-71
2022/06/09 04:10:34;;;;;;;3.67;0.90;;;15.70;99.80;;;;;;5073306;28;20017;-71
2022/06/09 04:13:01;;;;;;;0.32;0.20;;;15.80;99.70;;;;;;5073315;28;20051;-72
2022/06/09 04:15:29;;;;;;;0.65;0.20;;;15.80;99.90;;;;;;5073160;28;20049;-71
2022/06/09 04:17:57;;;;;;;0.73;0.25;;;15.80;99.70;;;;;;5073291;28;20499;-72
2022/06/09 04:20:26;;;;;;;16.00;2.13;;;15.70;99.20;;;;;;5073164;28;20017;-72
2022/06/09 04:22:54;;;;;;;0.93;0.20;;;15.60;99.50;;;;;;5073147;28;20476;-72
2022/06/09 04:25:22;;;;;;;0.30;0.20;;;15.50;99.40;;;;;;5073055;28;20204;-72
2022/06/09 04:27:49;;;;;;;0.45;0.20;;;15.40;99.80;;;;;;5071842;28;20032;-72
2022/06/09 04:30:17;;;;;;;2.20;0.40;;;15.40;99.90;;;;;;5072884;28;20449;-72
2022/06/09 04:32:44;;;;;;;1.58;0.40;;;15.50;99.90;;;;;;5072898;28;20079;-72
2022/06/09 04:35:12;;;;;;;0.57;0.35;;;15.60;99.90;;;;;;5072894;28;20431;-72
2022/06/09 04:40:28;;;;;;;0.30;0.13;;;15.50;99.60;;;;;;5073486;28;20161;-72
2022/06/09 04:42:55;;;;;;;3.05;0.20;;;15.40;99.90;;;;;;5072960;28;20027;-72
2022/06/09 04:45:23;;;;;;;3.08;0.52;;;15.40;99.90;;;;;;5072837;28;20028;-72
2022/06/09 04:47:50;;;;;;;1.40;0.20;;;15.40;99.90;;;;;;5071584;28;20484;-72
2022/06/09 04:50:18;;;;;;;0.50;0.25;;;15.30;99.90;;;;;;5072871;28;20031;-71
2022/06/09 04:52:46;;;;;;;1.08;0.30;;;15.30;99.90;;;;;;5072439;28;20455;-72
2022/06/09 04:55:14;;;;;;;5.22;1.10;;;15.30;99.90;;;;;;5072655;28;20025;-71
2022/06/09 04:57:41;;;;;;;2.83;0.30;;;15.30;99.90;;;;;;5072763;28;20052;-73
2022/06/09 05:00:12;;;;;;;0.63;0.10;;;15.30;99.90;;;;;;5072840;28;20032;-72
2022/06/09 05:02:39;;;;;;;1.10;0.32;;;15.30;99.90;;;;;;5072934;28;20025;-73
2022/06/09 05:05:10;;;;;;;1.65;0.20;;;15.30;99.90;;;;;;5072693;28;20024;-73
2022/06/09 05:07:38;;;;;;;1.80;0.40;;;15.30;99.90;;;;;;5072488;28;20038;-73
2022/06/09 05:10:05;;;;;;;4.10;0.70;;;15.30;99.90;;;;;;5071345;28;20025;-73
2022/06/09 05:12:33;;;;;;;1.65;0.47;;;15.30;99.90;;;;;;5071182;28;20524;-73
2022/06/09 05:15:00;;;;;;;4.35;0.70;;;15.30;99.90;;;;;;5071201;28;20166;-73
2022/06/09 05:17:27;;;;;;;0.68;0.32;;;15.30;99.90;;;;;;5071188;28;20393;-73
2022/06/09 05:19:55;;;;;;;2.38;0.30;;;15.20;99.90;;;;;;5072600;28;20055;-73
2022/06/09 05:22:22;;;;;;;0.90;0.28;;;15.10;99.90;;;;;;5072420;28;20193;-73
2022/06/09 05:24:49;;;;;;;0.90;0.20;;;15.00;99.90;;;;;;5072393;28;20021;-73
2022/06/09 05:27:17;;;;;;;1.40;0.40;;;15.00;99.90;;;;;;5072169;28;20103;-72
2022/06/09 05:29:46;;;;;;;0.50;0.30;;;15.00;99.90;;;;;;5072516;28;20036;-72
2022/06/09 05:32:13;;;;;;;0.77;0.10;;;14.90;99.90;;;;;;5072185;28;20127;-72
2022/06/09 05:34:40;;;;;;;0.77;0.25;;;14.80;99.90;;;;;;5071035;28;20134;-72
2022/06/09 05:37:08;;;;;;;9.55;1.30;;;14.80;99.90;;;;;;5072314;28;20032;-72
2022/06/09 05:45:06;;;;;;;1.02;0.50;;;14.70;99.90;;;;;;5072477;28;20090;-72
2022/06/09 05:47:33;;;;;;;0.40;0.20;;;14.70;99.90;;;;;;5072215;28;20028;-72
2022/06/09 05:50:01;;;;;;;2.00;0.50;;;14.50;99.90;;;;;;5072160;28;20027;-72
2022/06/09 05:52:29;;;;;;;0.93;0.20;;;14.60;99.90;;;;;;5072215;28;20024;-72
2022/06/09 05:54:57;;;;;;;3.10;0.40;;;14.50;99.90;;;;;;5072517;28;20024;-72
2022/06/09 05:57:26;;;;;;;0.20;0.10;;;14.40;99.90;;;;;;5072153;28;20088;-72
2022/06/09 05:59:55;;;;;;;0.82;0.40;;;14.40;99.90;;;;;;5072076;28;20016;-72
2022/06/09 06:02:25;;;;;;;0.68;0.30;;;14.40;99.90;;;;;;5072037;28;20104;-72
2022/06/09 06:04:53;;;;;;;1.48;0.22;;;14.30;99.90;;;;;;5073548;28;20021;-72
2022/06/09 06:07:20;;;;;;;1.88;0.50;;;14.20;99.90;;;;;;5075903;28;20029;-72
2022/06/09 06:09:48;;;;;;;1.25;0.30;;;14.20;99.90;;;;;;5075651;28;20091;-72
2022/06/09 06:12:15;;;;;;;0.50;0.20;;;14.10;99.90;;;;;;5075707;28;20027;-72
2022/06/09 06:14:43;;;;;;;3.00;0.52;;;14.00;99.90;;;;;;5075406;28;20059;-72
2022/06/09 06:17:10;;;;;;;2.13;0.50;;;13.90;99.90;;;;;;5075613;28;20066;-72
2022/06/09 06:19:38;;;;;;;0.52;0.20;;;13.90;99.90;;;;;;5075344;28;20036;-72
2022/06/09 06:22:05;;;;;;;0.75;0.35;;;13.90;99.90;;;;;;5075387;28;20046;-73
2022/06/09 06:24:33;;;;;;;2.85;0.50;;;13.80;99.90;;;;;;5075804;28;20036;-73
2022/06/09 06:27:00;;;;;;;1.65;0.40;;;13.70;99.90;;;;;;5075427;28;20103;-73
2022/06/09 06:29:28;;;;;;;8.35;1.25;;;13.70;99.90;;;;;;5075323;28;20029;-73
2022/06/09 06:31:55;;;;;;;2.13;1.08;;;13.60;99.90;;;;;;5075132;28;20074;-72
2022/06/09 06:34:23;;;;;;;2.67;0.50;;;13.60;99.90;;;;;;5075078;28;20056;-73
2022/06/09 06:36:50;;;;;;;2.05;0.25;;;13.50;99.90;;;;;;5073920;28;20536;-73
2022/06/09 06:39:18;;;;;;;2.08;0.60;;;13.50;99.90;;;;;;5075221;28;20020;-74
2022/06/09 06:41:45;;;;;;;2.00;0.50;;;13.40;99.90;;;;;;5073898;28;20021;-73
2022/06/09 06:44:13;;;;;;;9.23;1.50;;;13.30;99.90;;;;;;5075011;28;20108;-73
2022/06/09 06:46:40;;;;;;;2.22;0.90;;;13.30;99.90;;;;;;5074980;28;20025;-73
2022/06/09 06:49:09;;;;;;;1.02;0.60;;;13.20;99.90;;;;;;5073507;28;20029;-74
2022/06/09 06:51:37;;;;;;;0.80;0.50;;;13.10;99.90;;;;;;5074908;28;20460;-73
2022/06/09 06:54:05;;;;;;;4.60;2.70;;;13.00;99.90;;;;;;5074590;28;20043;-73
2022/06/09 06:56:36;;;;;;;1.08;0.38;;;13.00;99.90;;;;;;5073577;28;20029;-73
2022/06/09 06:59:04;;;;;;;0.85;0.60;;;12.90;99.90;;;;;;5075019;28;20024;-73
2022/06/09 07:01:31;;;;;;;1.88;0.30;;;12.80;99.90;;;;;;5074252;28;20012;-73
2022/06/09 07:03:59;;;;;;;1.65;0.50;;;12.80;99.90;;;;;;5074382;28;20119;-73
2022/06/09 07:06:26;;;;;;;2.00;0.60;;;12.70;99.90;;;;;;5074482;28;20117;-73
2022/06/09 07:08:54;;;;;;;1.50;1.20;;;12.60;99.90;;;;;;5074586;28;20370;-73
2022/06/09 07:11:23;;;;;;;1.73;0.60;;;12.50;99.90;;;;;;5075151;28;20075;-73
2022/06/09 07:13:50;;;;;;;0.88;0.30;;;12.60;99.90;;;;;;5074087;28;20099;-73
2022/06/09 07:16:18;;;;;;;1.73;0.40;;;12.50;99.90;;;;;;5073649;28;20024;-73
2022/06/09 07:18:46;;;;;;;1.23;0.60;;;12.50;99.90;;;;;;5072915;28;20074;-73
2022/06/09 07:21:15;;;;;;;1.15;0.43;;;12.50;99.90;;;;;;5074905;28;20029;-73
2022/06/09 07:23:43;;;;;;;1.15;0.40;;;12.40;99.90;;;;;;5074541;28;20381;-71
2022/06/09 07:26:10;;;;;;;1.20;0.45;;;12.40;99.90;;;;;;5074339;28;20048;-71
2022/06/09 07:28:38;;;;;;;4.30;0.40;;;12.40;99.90;;;;;;5072746;28;20079;-71
2022/06/09 07:31:07;;;;;;;2.03;0.82;;;12.30;99.90;;;;;;5074172;28;20435;-71
2022/06/09 07:33:37;;;;;;;0.82;0.25;;;12.30;99.90;;;;;;5073822;28;20045;-71
2022/06/09 07:36:08;;;;;;;1.65;0.45;;;12.20;99.90;;;;;;5074139;28;20029;-72
2022/06/09 07:38:36;;;;;;;2.00;0.50;;;12.20;99.90;;;;;;5074119;28;20028;-71
2022/06/09 07:41:04;;;;;;;2.15;0.20;;;12.20;99.90;;;;;;5074049;28;20051;-72
2022/06/09 07:43:31;;;;;;;3.33;0.50;;;12.10;99.90;;;;;;5072581;28;20052;-72
2022/06/09 07:45:59;;;;;;;1.40;0.55;;;12.10;99.90;;;;;;5072532;28;20032;-71
2022/06/09 07:48:26;;;;;;;0.50;0.28;;;12.00;99.90;;;;;;5073713;28;20059;-72
2022/06/09 07:50:54;;;;;;;0.38;0.30;;;12.00;99.90;;;;;;5073603;28;20029;-71
2022/06/09 07:53:23;;;;;;;0.50;0.38;;;11.90;99.90;;;;;;5073754;28;20494;-71
2022/06/09 07:55:50;;;;;;;1.60;0.50;;;11.90;99.90;;;;;;5073672;28;20068;-72
2022/06/09 07:58:19;;;;;;;0.70;0.20;;;11.90;99.90;;;;;;5073694;28;20094;-72
2022/06/09 08:00:47;;;;;;;0.60;0.30;;;12.00;99.90;;;;;;5073464;28;20020;-71
2022/06/09 08:03:22;;;;;;;0.73;0.30;;;12.00;99.90;;;;;;5072263;28;20469;-73
2022/06/09 08:05:50;;;;;;;0.75;0.30;;;12.00;99.90;;;;;;5073831;28;20024;-73
2022/06/09 08:08:19;;;;;;;1.73;0.63;;;11.90;99.90;;;;;;5072303;28;20035;-71
2022/06/09 08:10:48;;;;;;;0.57;0.32;;;11.90;99.90;;;;;;5073440;28;20112;-72
2022/06/09 08:13:16;;;;;;;0.90;0.35;;;11.90;99.90;;;;;;5073654;28;20103;-72
2022/06/09 08:15:45;;;;;;;0.65;0.47;;;11.90;99.90;;;;;;5073256;28;20101;-72
2022/06/09 08:18:13;;;;;;;1.40;0.40;;;11.80;99.90;;;;;;5072953;28;20032;-70
2022/06/09 08:20:42;;;;;;;0.57;0.30;;;11.70;99.90;;;;;;5072063;28;20541;-72
2022/06/09 08:23:14;;;;;;;0.40;0.30;;;11.70;99.90;;;;;;5072496;28;20017;-72
2022/06/09 08:25:43;;;;;;;0.73;0.30;;;11.70;99.90;;;;;;5073533;28;20020;-72
2022/06/09 08:28:12;;;;;;;1.20;0.70;;;11.70;99.90;;;;;;5072345;28;20029;-72
2022/06/09 08:30:40;;;;;;;0.90;0.50;;;11.70;99.90;;;;;;5073190;28;20435;-71
2022/06/09 08:33:07;;;;;;;1.40;0.50;;;11.60;99.90;;;;;;5071726;28;20082;-72
2022/06/09 08:35:36;;;;;;;1.48;0.50;;;11.50;99.90;;;;;;5073087;28;20016;-72
2022/06/09 08:38:05;;;;;;;0.70;0.50;;;11.60;99.90;;;;;;5073042;28;20025;-71
2022/06/09 08:40:57;;;;;;;1.02;0.40;;;11.50;99.90;;;;;;5071745;28;20465;-71
2022/06/09 08:43:39;;;;;;;0.85;0.40;;;11.50;99.90;;;;;;5072995;28;20495;-72
2022/06/09 08:46:51;;;;;;;1.88;0.68;;;11.50;99.90;;;;;;5073146;28;20029;-72
2022/06/09 08:50:01;;;;;;;1.10;0.50;;;11.60;99.90;;;;;;5071773;28;20028;-71
2022/06/09 08:52:31;;;;;;;0.52;0.40;;;11.50;99.90;;;;;;5041397;28;20036;-72
2022/06/09 08:54:59;;;;;;;1.33;0.60;;;11.50;99.90;;;;;;5073119;28;20108;-72
2022/06/09 08:57:33;;;;;;;2.25;0.40;;;11.50;99.90;;;;;;5072866;28;20392;-73
2022/06/09 09:00:01;;;;;;;0.55;0.43;;;11.40;99.90;;;;;;5073120;28;20044;-72
2022/06/09 09:02:34;;;;;;;0.80;0.40;;;11.40;99.90;;;;;;5072804;28;20013;-72
2022/06/09 09:05:33;;;;;;;0.80;0.40;;;11.40;99.90;;;;;;5073031;28;20111;-72
2022/06/09 09:08:04;;;;;;;0.75;0.40;;;11.30;99.90;;;;;;5072588;28;20025;-72
2022/06/09 09:10:52;;;;;;;1.05;0.40;;;11.20;99.90;;;;;;5072847;28;20085;-72
2022/06/09 09:13:50;;;;;;;0.80;0.50;;;11.10;99.90;;;;;;5073105;28;20032;-73
2022/06/09 09:16:54;;;;;;;1.95;0.50;;;11.20;99.90;;;;;;5071414;28;20370;-72
2022/06/09 09:19:31;;;;;;;3.08;0.65;;;11.10;99.90;;;;;;5044364;28;20078;-72
2022/06/09 09:22:28;;;;;;;1.63;0.60;;;11.10;99.90;;;;;;5071677;28;20447;-72
2022/06/09 09:25:05;;;;;;;1.05;0.85;;;11.00;99.90;;;;;;5070731;28;20044;-72
2022/06/09 09:27:48;;;;;;;1.13;0.65;;;11.00;99.90;;;;;;5073069;28;20020;-72
2022/06/09 09:30:20;;;;;;;2.00;1.23;;;10.80;99.90;;;;;;5072758;28;20376;-72
2022/06/09 09:32:54;;;;;;;2.72;1.42;;;10.80;99.90;;;;;;5072535;28;20505;-72
2022/06/09 09:35:32;;;;;;;2.63;1.40;;;10.70;99.90;;;;;;5071387;28;20031;-73
2022/06/09 09:38:01;;;;;;;3.15;1.13;;;10.70;99.90;;;;;;5072758;28;20082;-73
2022/06/09 09:40:36;;;;;;;2.50;1.40;;;10.70;99.90;;;;;;5073769;28;20025;-72
2022/06/09 09:43:11;;;;;;;2.17;1.40;;;10.60;99.90;;;;;;5076992;28;20035;-71
2022/06/09 09:45:42;;;;;;;1.17;0.80;;;10.60;99.90;;;;;;5075272;28;20027;-73
2022/06/09 09:48:34;;;;;;;1.67;1.00;;;10.60;99.90;;;;;;5075043;28;20032;-72
2022/06/09 09:51:13;;;;;;;2.40;1.33;;;10.50;99.90;;;;;;5076172;28;20126;-73
2022/06/09 09:53:56;;;;;;;1.50;1.00;;;10.50;99.90;;;;;;5074947;28;20076;-74
2022/06/09 09:56:33;;;;;;;1.88;0.80;;;10.50;99.90;;;;;;5074743;28;20029;-74
2022/06/09 09:59:02;;;;;;;2.08;1.10;;;10.40;99.90;;;;;;5076135;28;20028;-73
2022/06/09 10:08:35;;;;;;;2.60;1.38;;;10.30;99.90;;;;;;5075983;28;20016;-73
2022/06/09 10:10:26;;;;;;;3.95;1.75;;;10.10;99.90;;;;;;5076081;28;20063;-73
2022/06/09 10:12:58;;;;;;;4.10;1.88;;;10.10;99.90;;;;;;5075870;28;20033;-72
2022/06/09 10:15:26;;;;;;;2.97;1.48;;;10.00;99.90;;;;;;5075742;28;20028;-72
2022/06/09 10:18:01;;;;;;;2.08;1.40;;;10.10;99.90;;;;;;5074363;28;20020;-71
2022/06/09 10:20:43;;;;;;;3.20;1.65;;;10.00;99.90;;;;;;5076038;28;20492;-72
2022/06/09 10:23:10;;;;;;;3.33;1.40;;;9.90;99.90;;;;;;5074424;28;20024;-69
2022/06/09 10:25:41;;;;;;;4.22;2.05;;;9.90;99.90;;;;;;5075500;28;20362;-73
2022/06/09 10:28:30;;;;;;;3.05;1.48;;;9.80;99.90;;;;;;5075523;28;20024;-73
2022/06/09 10:31:23;;;;;;;2.72;1.52;;;9.70;99.90;;;;;;5075709;28;20384;-73
2022/06/09 10:34:04;;;;;;;2.00;1.55;;;9.70;99.90;;;;;;5043692;28;20044;-72
2022/06/09 10:36:43;;;;;;;4.00;1.55;;;9.60;99.90;;;;;;5075747;28;20048;-72
2022/06/09 10:39:19;;;;;;;4.93;1.70;;;9.50;99.90;;;;;;5075496;28;20020;-71
2022/06/09 10:41:53;;;;;;;2.55;1.67;;;9.50;99.90;;;;;;5074063;28;20087;-71
2022/06/09 10:44:33;;;;;;;2.40;1.67;;;9.40;99.90;;;;;;5075714;28;20024;-71
2022/06/09 10:56:04;;;;;;;3.90;1.80;;;9.50;99.90;;;;;;5075008;28;20123;-71
2022/06/09 10:58:33;;;;;;;;;;;9.40;99.90;;;;;;5075545;28;20016;-71
2022/06/09 11:01:01;;;;;;;2.97;1.33;;;9.40;99.90;;;;;;5074964;28;19904;-71
2022/06/09 11:03:39;;;;;;;2.85;1.58;;;9.40;99.90;;;;;;5073956;28;20389;-71
2022/06/09 11:06:24;;;;;;;3.03;1.52;;;9.50;99.90;;;;;;5074833;28;20024;-71
2022/06/09 11:09:16;;;;;;;2.33;1.20;;;9.40;99.90;;;;;;5074959;28;20103;-71
2022/06/09 11:11:56;;;;;;;2.53;1.25;;;9.50;99.90;;;;;;5074899;28;20074;-71
2022/06/09 11:14:41;;;;;;;1.58;0.90;;;9.50;99.90;;;;;;5073254;28;20028;-71
2022/06/09 11:17:11;;;;;;;1.58;0.90;;;9.50;99.90;;;;;;5073480;28;20032;-71
2022/06/09 11:20:11;;;;;;;2.10;0.90;;;9.60;99.90;;;;;;5074093;28;20393;-72
2022/06/09 11:23:12;;;;;;;1.52;0.80;;;9.60;99.90;;;;;;5073246;28;20408;-72
2022/06/09 11:25:55;;;;;;;1.33;0.77;;;9.70;99.90;;;;;;5074727;28;20029;-72
2022/06/09 11:28:46;;;;;;;2.05;1.30;;;9.70;99.90;;;;;;5074996;28;20039;-72
2022/06/09 11:31:29;;;;;;;1.70;0.80;;;9.70;99.90;;;;;;5053042;28;20140;-72
2022/06/09 11:34:25;;;;;;;3.15;1.23;;;9.60;99.90;;;;;;5073067;28;20484;-72
2022/06/09 11:37:01;;;;;;;1.20;0.90;;;9.60;99.90;;;;;;5074356;28;20020;-72
2022/06/09 11:39:56;;;;;;;2.42;0.85;;;9.60;99.90;;;;;;5074307;28;20017;-72
2022/06/09 11:42:52;;;;;;;1.25;0.93;;;9.60;99.90;;;;;;5074151;28;20020;-72
2022/06/09 11:45:22;;;;;;;1.60;0.70;;;9.50;99.90;;;;;;5072343;28;20512;-71
2022/06/09 11:47:51;;;;;;;1.75;0.82;;;9.50;99.90;;;;;;5074673;28;20028;-71
2022/06/09 11:50:21;;;;;;;1.00;0.80;;;9.50;99.90;;;;;;5074121;28;20505;-71
2022/06/09 11:52:50;;;;;;;1.90;0.70;;;9.50;99.90;;;;;;5074525;28;20523;-72
2022/06/09 11:56:15;;;;;;;0.98;0.70;;;9.30;99.90;;;;;;5073834;28;20078;-72
2022/06/09 11:58:35;;;;;;;1.70;0.82;;;9.30;99.90;;;;;;5069661;28;20025;-71
2022/06/09 12:01:24;;;;;;;1.88;0.93;;;9.10;99.90;;;;;;5073758;28;20464;-71
2022/06/09 12:04:00;;;;;;;1.90;1.10;;;9.00;99.90;;;;;;5073721;28;20017;-72
2022/06/09 12:06:46;;;;;;;1.20;0.88;;;8.90;99.90;;;;;;5072414;28;20042;-71
2022/06/09 12:09:25;;;;;;;0.82;0.73;;;8.70;99.90;;;;;;5073833;28;20468;-71
2022/06/09 12:12:00;;;;;;;1.90;1.00;;;8.70;99.90;;;;;;5073955;28;20027;-71
2022/06/09 12:14:36;;;;;;;1.23;0.80;;;8.70;99.90;;;;;;5072676;28;20120;-70
2022/06/09 12:17:18;;;;;;;3.03;1.08;;;8.70;99.90;;;;;;5073518;28;20061;-71
2022/06/09 12:19:59;;;;;;;1.95;1.08;;;8.70;99.90;;;;;;5073482;28;20024;-71
2022/06/09 12:22:45;;;;;;;2.20;1.13;;;8.70;99.90;;;;;;5073370;28;20376;-71
2022/06/09 12:25:14;;;;;;;1.85;1.00;;;8.60;99.90;;;;;;5072065;28;20078;-71
2022/06/09 12:27:46;;;;;;;2.17;1.00;;;8.60;99.90;;;;;;5071909;28;20037;-71
2022/06/09 12:30:26;;;;;;;2.50;1.17;;;8.50;99.90;;;;;;5073519;28;20074;-71
2022/06/09 12:33:19;;;;;;;1.52;1.10;;;8.40;99.90;;;;;;5073108;28;20411;-71
2022/06/09 12:35:59;;;;;;;3.25;1.10;;;8.40;99.90;;;;;;5070976;28;20044;-70
2022/06/09 12:38:38;;;;;;;1.55;0.98;;;8.40;99.90;;;;;;5073427;28;20023;-70
2022/06/09 12:41:20;;;;;;;1.63;0.90;;;8.40;99.90;;;;;;5073290;28;20431;-70
2022/06/09 12:43:59;;;;;;;1.25;1.08;;;8.30;99.90;;;;;;5073571;28;20039;-70
2022/06/09 12:46:33;;;;;;;1.67;1.00;;;8.30;99.90;;;;;;5073073;28;20024;-70
2022/06/09 12:49:13;;;;;;;2.75;0.80;;;8.30;99.90;;;;;;5073090;28;20101;-71
2022/06/09 12:51:41;;;;;;;1.60;0.90;;;8.30;99.90;;;;;;5073105;28;20044;-70
2022/06/09 12:54:20;;;;;;;1.05;0.70;;;8.20;99.90;;;;;;5072909;28;20151;-70
2022/06/09 12:57:14;;;;;;;1.38;0.88;;;8.10;99.90;;;;;;5073311;28;20031;-69
2022/06/09 12:59:42;;;;;;;2.90;0.93;;;8.10;99.90;;;;;;5072982;28;20017;-70
2022/06/09 13:02:20;;;;;;;1.55;0.80;;;8.10;99.90;;;;;;5072937;28;20448;-72
2022/06/09 13:04:57;;;;;;;1.20;1.00;;;8.10;99.90;;;;;;5071587;28;20032;-69
2022/06/09 13:07:35;;;;;;;1.35;0.80;;;8.10;99.90;;;;;;5072967;28;20020;-69
2022/06/09 13:10:23;;;;;;;1.55;0.82;;;8.10;99.90;;;;;;5072911;28;20028;-70
2022/06/09 13:12:59;;;;;;;1.95;1.05;;;8.10;99.90;;;;;;5072843;28;20038;-68
2022/06/09 13:15:45;;;;;;;2.22;0.80;;;8.20;99.90;;;;;;5075450;28;20035;-69
2022/06/09 13:18:38;;;;;;;1.30;0.80;;;8.20;99.90;;;;;;5076953;28;20027;-69
2022/06/09 13:21:20;;;;;;;1.63;1.05;;;8.20;99.90;;;;;;5076599;28;20036;-69
2022/06/09 13:23:52;;;;;;;1.00;0.80;;;8.20;99.90;;;;;;5077153;28;20380;-69
2022/06/09 13:26:28;;;;;;;1.77;0.65;;;8.20;99.90;;;;;;5077371;28;20381;-69
2022/06/09 13:28:58;;;;;;;1.50;0.80;;;8.20;99.90;;;;;;5076674;28;20028;-69
2022/06/09 13:31:36;;;;;;;1.85;0.80;;;8.10;99.90;;;;;;5075122;28;20052;-69
2022/06/09 13:34:12;;;;;;;1.33;0.70;;;8.10;99.90;;;;;;5075417;28;20531;-70
2022/06/09 13:36:41;;;;;;;1.33;0.70;;;8.00;99.90;;;;;;5076775;28;20070;-70
2022/06/09 13:39:27;;;;;;;0.90;0.68;;;8.10;99.90;;;;;;5076882;28;20013;-70
2022/06/09 13:42:21;;;;;;;2.58;0.77;;;8.10;99.90;;;;;;5076822;28;20020;-69
2022/06/09 13:45:28;;;;;;;2.10;0.63;;;8.10;99.90;;;;;;5075212;28;20032;-72